Time;durP1;ratioP1;P1;durP2;ratioP2;P2;SDS_P1;SDS_P2;PMS_P1;PMS_P2;Temp;Humidity;BMP_temperature;BMP_pressure;BME280_temperature;BME280_humidity;BME280_pressure;Samples;Min_cycle;Max_cycle;Signal;HPM_P1;HPM_P2
2024/04/02 00:00:40;;;;;;;1.58;1.00;;;8.90;99.90;;;;;;5054922;28;20495;-57
2024/04/02 00:03:08;;;;;;;3.30;0.93;;;8.90;99.90;;;;;;5056056;28;20407;-55
2024/04/02 00:05:34;;;;;;;0.80;0.80;;;8.90;99.90;;;;;;5055205;28;20025;-55
2024/04/02 00:08:02;;;;;;;1.95;0.90;;;8.80;99.90;;;;;;5056412;28;20396;-55
2024/04/02 00:10:28;;;;;;;0.85;0.85;;;8.90;99.90;;;;;;5056609;28;20021;-52
2024/04/02 00:12:54;;;;;;;3.03;1.05;;;8.80;99.90;;;;;;5055474;28;20071;-48
2024/04/02 00:15:19;;;;;;;2.45;0.93;;;8.90;99.90;;;;;;5056175;28;20108;-53
2024/04/02 00:17:45;;;;;;;2.75;1.02;;;8.90;99.90;;;;;;5054092;28;20053;-55
2024/04/02 00:20:11;;;;;;;3.38;0.70;;;8.90;99.90;;;;;;5056063;28;20520;-53
2024/04/02 00:22:37;;;;;;;1.20;0.60;;;8.90;99.90;;;;;;5055886;28;20158;-56
2024/04/02 00:25:04;;;;;;;1.58;0.75;;;8.90;99.90;;;;;;5055927;28;20116;-51
2024/04/02 00:27:30;;;;;;;2.47;0.73;;;8.90;99.90;;;;;;5055677;28;20409;-54
2024/04/02 00:29:55;;;;;;;0.80;0.80;;;8.90;99.90;;;;;;5055890;28;20049;-56
2024/04/02 00:32:22;;;;;;;1.90;0.98;;;8.90;99.90;;;;;;5056203;28;20023;-51
2024/04/02 00:34:47;;;;;;;2.78;1.00;;;8.80;99.90;;;;;;5055142;28;20025;-52
2024/04/02 00:37:13;;;;;;;2.15;1.15;;;8.90;99.90;;;;;;5056141;28;20027;-52
2024/04/02 00:39:39;;;;;;;0.95;0.70;;;9.00;99.90;;;;;;5055874;28;20025;-57
2024/04/02 00:42:04;;;;;;;1.33;0.77;;;9.10;99.90;;;;;;5054338;28;20100;-54
2024/04/02 00:44:33;;;;;;;1.48;0.93;;;9.10;99.90;;;;;;5054577;28;20381;-53
2024/04/02 00:46:59;;;;;;;3.40;1.08;;;;;;;;;;5055452;28;20112;-52
2024/04/02 00:49:25;;;;;;;1.35;0.77;;;8.80;99.90;;;;;;5055489;28;20056;-57
2024/04/02 00:51:51;;;;;;;1.83;0.80;;;8.90;99.90;;;;;;5054611;28;20391;-49
2024/04/02 00:54:17;;;;;;;2.22;1.17;;;8.80;99.90;;;;;;5055476;28;20036;-52
2024/04/02 00:56:44;;;;;;;1.05;0.65;;;8.80;99.90;;;;;;5055926;28;20032;-55
2024/04/02 00:59:10;;;;;;;1.80;0.80;;;8.80;99.90;;;;;;5055445;28;20029;-54
2024/04/02 01:01:36;;;;;;;0.82;0.70;;;8.90;99.90;;;;;;5055388;28;20063;-53
2024/04/02 01:04:02;;;;;;;3.50;1.00;;;8.80;99.90;;;;;;5053742;28;20060;-52
2024/04/02 01:06:28;;;;;;;0.90;0.90;;;8.80;99.90;;;;;;5055359;28;20032;-52
2024/04/02 01:08:54;;;;;;;0.80;0.80;;;8.80;99.90;;;;;;5054929;28;20076;-54
2024/04/02 01:11:20;;;;;;;1.00;0.95;;;8.80;99.90;;;;;;5055041;28;20021;-53
2024/04/02 01:13:47;;;;;;;1.00;0.88;;;8.70;99.90;;;;;;5056250;28;20040;-51
2024/04/02 01:16:16;;;;;;;3.97;1.10;;;8.70;99.90;;;;;;5054580;28;20036;-55
2024/04/02 01:18:48;;;;;;;1.75;1.00;;;8.70;99.90;;;;;;5054705;28;20402;-54
2024/04/02 01:21:14;;;;;;;1.90;0.80;;;8.70;99.90;;;;;;5055355;28;20392;-54
2024/04/02 01:23:39;;;;;;;3.33;0.90;;;8.80;99.90;;;;;;5055541;28;20033;-53
2024/04/02 01:26:05;;;;;;;4.15;0.80;;;8.80;99.90;;;;;;5055352;28;20488;-52
2024/04/02 01:28:30;;;;;;;0.68;0.60;;;8.80;99.90;;;;;;5054247;28;20027;-50
2024/04/02 01:30:56;;;;;;;5.07;1.13;;;8.80;99.90;;;;;;5054531;28;20028;-52
2024/04/02 01:33:21;;;;;;;0.80;0.80;;;8.80;99.90;;;;;;5056014;28;20552;-49
2024/04/02 01:35:47;;;;;;;2.03;1.38;;;8.90;99.90;;;;;;5054830;28;20028;-51
2024/04/02 01:38:12;;;;;;;1.23;0.98;;;8.90;99.90;;;;;;5055298;28;20399;-51
2024/04/02 01:40:38;;;;;;;2.95;0.70;;;9.00;99.90;;;;;;5056237;28;20048;-55
2024/04/02 01:43:04;;;;;;;1.23;0.70;;;9.00;99.90;;;;;;5055608;28;20515;-50
2024/04/02 01:45:30;;;;;;;0.73;0.73;;;9.10;99.90;;;;;;5053732;28;20044;-51
2024/04/02 01:47:55;;;;;;;0.70;0.65;;;9.10;99.90;;;;;;5054390;28;20025;-53
2024/04/02 01:50:21;;;;;;;4.72;0.98;;;9.10;99.90;;;;;;5054392;28;20028;-51
2024/04/02 01:52:46;;;;;;;1.00;0.70;;;9.10;99.90;;;;;;5052697;28;20032;-53
2024/04/02 01:55:11;;;;;;;1.60;0.75;;;9.10;99.90;;;;;;5054482;28;20036;-51
2024/04/02 01:57:37;;;;;;;3.72;0.98;;;9.20;99.90;;;;;;5054098;28;20476;-52
2024/04/02 02:00:04;;;;;;;2.95;0.80;;;9.20;99.90;;;;;;5054244;28;20029;-51
2024/04/02 02:02:29;;;;;;;2.90;1.20;;;9.20;99.90;;;;;;5054593;28;20111;-52
2024/04/02 02:04:55;;;;;;;1.35;0.82;;;9.30;99.90;;;;;;5054260;28;20068;-55
2024/04/02 02:07:21;;;;;;;2.05;1.00;;;9.30;99.90;;;;;;5054647;28;20074;-52
2024/04/02 02:09:46;;;;;;;2.50;1.23;;;9.30;99.90;;;;;;5054407;28;20021;-54
2024/04/02 02:12:12;;;;;;;1.80;0.88;;;9.30;99.90;;;;;;5054666;28;20036;-50
2024/04/02 02:14:37;;;;;;;6.25;1.15;;;9.20;99.90;;;;;;5053122;28;20021;-57
2024/04/02 02:17:03;;;;;;;3.80;0.75;;;9.20;99.90;;;;;;5053776;28;20025;-52
2024/04/02 02:19:29;;;;;;;2.40;0.80;;;9.20;99.90;;;;;;5053544;28;20114;-55
2024/04/02 02:21:54;;;;;;;2.15;1.23;;;9.60;99.90;;;;;;5054211;28;20404;-52
2024/04/02 02:24:20;;;;;;;1.52;0.60;;;9.10;99.90;;;;;;5053930;28;20029;-55
2024/04/02 02:26:45;;;;;;;0.70;0.70;;;9.10;99.90;;;;;;5054046;28;20032;-52
2024/04/02 02:29:10;;;;;;;0.95;0.65;;;9.00;99.90;;;;;;5053922;28;20100;-53
2024/04/02 02:31:38;;;;;;;2.38;0.88;;;9.00;99.90;;;;;;5054162;28;20029;-55
2024/04/02 02:34:04;;;;;;;1.00;0.85;;;9.00;99.90;;;;;;5053445;28;20027;-50
2024/04/02 02:36:29;;;;;;;1.27;0.90;;;8.90;99.90;;;;;;5052322;28;20032;-52
2024/04/02 02:38:55;;;;;;;1.60;0.98;;;8.80;99.90;;;;;;5053890;28;20100;-51
2024/04/02 02:41:20;;;;;;;0.95;0.80;;;8.80;99.90;;;;;;5053449;28;20033;-52
2024/04/02 02:43:46;;;;;;;1.13;0.80;;;8.90;99.90;;;;;;5053758;28;20076;-51
2024/04/02 02:46:11;;;;;;;0.82;0.82;;;8.90;99.90;;;;;;5053778;28;20033;-52
2024/04/02 02:48:38;;;;;;;1.48;1.23;;;8.90;99.90;;;;;;5053497;28;20088;-54
2024/04/02 02:51:03;;;;;;;1.27;0.90;;;8.90;99.90;;;;;;5053583;28;20025;-52
2024/04/02 02:53:29;;;;;;;1.23;1.13;;;9.00;99.90;;;;;;5053485;28;20025;-56
2024/04/02 02:55:56;;;;;;;2.20;0.85;;;9.00;99.90;;;;;;5053473;28;20076;-50
2024/04/02 02:58:22;;;;;;;3.75;0.65;;;9.10;99.90;;;;;;5052075;28;20037;-55
2024/04/02 03:00:47;;;;;;;1.92;1.05;;;9.20;99.90;;;;;;5053432;28;20021;-53
2024/04/02 03:03:13;;;;;;;1.50;0.82;;;9.20;99.90;;;;;;5053114;28;20480;-51
2024/04/02 03:05:39;;;;;;;1.35;1.00;;;9.20;99.90;;;;;;5053568;28;20124;-51
2024/04/02 03:08:04;;;;;;;3.30;0.85;;;9.30;99.90;;;;;;5053455;28;20021;-56
2024/04/02 03:10:30;;;;;;;3.15;0.82;;;9.30;99.90;;;;;;5053599;28;20025;-55
2024/04/02 03:12:57;;;;;;;1.23;0.90;;;9.30;99.90;;;;;;5053435;28;20017;-57
2024/04/02 03:15:23;;;;;;;1.20;1.10;;;9.30;99.90;;;;;;5053084;28;20151;-51
2024/04/02 03:17:48;;;;;;;0.50;0.50;;;9.30;99.90;;;;;;5053707;28;20495;-50
2024/04/02 03:20:14;;;;;;;2.67;1.00;;;9.20;99.90;;;;;;5053563;28;20041;-55
2024/04/02 03:22:39;;;;;;;5.20;2.65;;;9.30;99.90;;;;;;5053522;28;20496;-49
2024/04/02 03:25:05;;;;;;;1.85;0.95;;;9.20;99.90;;;;;;5053608;28;20028;-55
2024/04/02 03:27:31;;;;;;;2.03;1.00;;;9.20;99.90;;;;;;5052982;28;20021;-53
2024/04/02 03:29:57;;;;;;;1.67;0.93;;;9.30;99.90;;;;;;5054290;28;20032;-50
2024/04/02 03:32:22;;;;;;;1.35;0.65;;;9.20;99.90;;;;;;5053507;28;20029;-52
2024/04/02 03:34:47;;;;;;;4.00;1.45;;;9.20;99.90;;;;;;5053214;28;20455;-55
2024/04/02 03:37:13;;;;;;;2.60;0.95;;;9.30;99.90;;;;;;5053323;28;20033;-56
2024/04/02 03:39:38;;;;;;;0.73;0.73;;;9.20;99.90;;;;;;5051903;28;20094;-52
2024/04/02 03:42:04;;;;;;;1.60;0.90;;;9.20;99.90;;;;;;5051307;28;20081;-52
2024/04/02 03:44:29;;;;;;;1.88;0.70;;;9.20;99.90;;;;;;5053233;28;20464;-55
2024/04/02 03:46:56;;;;;;;1.27;0.88;;;9.20;99.90;;;;;;5053317;28;20029;-52
2024/04/02 03:49:22;;;;;;;1.13;0.80;;;9.20;99.90;;;;;;5051718;28;20499;-51
2024/04/02 03:51:48;;;;;;;0.70;0.70;;;9.20;99.90;;;;;;5052642;28;20021;-51
2024/04/02 03:54:15;;;;;;;1.15;0.95;;;9.20;99.90;;;;;;5056186;28;20040;-54
2024/04/02 03:56:41;;;;;;;2.10;0.85;;;9.20;99.90;;;;;;5055302;28;20028;-56
2024/04/02 03:59:06;;;;;;;0.65;0.60;;;9.20;99.90;;;;;;5056618;28;20120;-51
2024/04/02 04:01:32;;;;;;;2.25;1.10;;;9.20;99.90;;;;;;5056855;28;20069;-53
2024/04/02 04:03:57;;;;;;;1.50;1.00;;;9.20;99.90;;;;;;5056714;28;20492;-58
2024/04/02 04:06:23;;;;;;;2.22;1.05;;;9.40;99.90;;;;;;5056604;28;20090;-52
2024/04/02 04:08:49;;;;;;;2.85;0.98;;;9.10;99.90;;;;;;5056279;28;20017;-50
2024/04/02 04:11:15;;;;;;;0.90;0.90;;;9.10;99.90;;;;;;5056183;28;20039;-51
2024/04/02 04:13:40;;;;;;;2.95;1.20;;;9.10;99.90;;;;;;5056744;28;20384;-54
2024/04/02 04:16:07;;;;;;;1.40;0.80;;;9.00;99.90;;;;;;5055739;28;20036;-55
2024/04/02 04:18:32;;;;;;;0.82;0.80;;;9.10;99.90;;;;;;5056272;28;20088;-53
2024/04/02 04:21:00;;;;;;;3.42;1.00;;;9.10;99.90;;;;;;5056357;28;20496;-51
2024/04/02 04:23:26;;;;;;;0.80;0.80;;;9.10;99.90;;;;;;5055984;28;20017;-51
2024/04/02 04:26:02;;;;;;;3.55;0.90;;;9.20;99.90;;;;;;5056122;28;20052;-54
2024/04/02 04:28:29;;;;;;;4.30;1.00;;;9.10;99.90;;;;;;5056024;28;20029;-52
2024/04/02 04:30:59;;;;;;;4.60;1.00;;;9.10;99.90;;;;;;5056320;28;20036;-56
2024/04/02 04:33:25;;;;;;;6.03;0.90;;;9.10;99.90;;;;;;5055473;28;20108;-55
2024/04/02 04:35:51;;;;;;;3.28;0.95;;;9.10;99.90;;;;;;5056188;28;20107;-54
2024/04/02 04:38:18;;;;;;;1.08;0.80;;;9.10;99.90;;;;;;5055597;28;20041;-49
2024/04/02 04:40:44;;;;;;;1.58;0.80;;;9.20;99.90;;;;;;5055358;28;20107;-52
2024/04/02 04:43:11;;;;;;;1.00;0.90;;;9.10;99.90;;;;;;5054843;28;20115;-57
2024/04/02 04:45:37;;;;;;;1.15;0.88;;;9.10;99.90;;;;;;5053956;28;20098;-53
2024/04/02 04:48:09;;;;;;;12.20;1.55;;;9.10;99.90;;;;;;5054198;28;20021;-56
2024/04/02 04:50:35;;;;;;;5.22;1.10;;;9.20;99.90;;;;;;5052719;28;20075;-57
2024/04/02 04:53:01;;;;;;;1.58;1.13;;;9.10;99.90;;;;;;5053268;28;20021;-53
2024/04/02 04:55:32;;;;;;;1.95;1.20;;;9.10;99.90;;;;;;5055819;28;20060;-56
2024/04/02 04:57:58;;;;;;;1.65;1.00;;;9.10;99.90;;;;;;5055247;28;20369;-56
2024/04/02 05:00:24;;;;;;;1.42;1.00;;;9.20;99.90;;;;;;5055785;28;20111;-54
2024/04/02 05:02:49;;;;;;;3.22;1.08;;;9.20;99.90;;;;;;5055051;28;20039;-56
2024/04/02 05:05:15;;;;;;;1.15;0.90;;;9.20;99.90;;;;;;5053630;28;20103;-52
2024/04/02 05:07:56;;;;;;;7.32;1.77;;;9.20;99.90;;;;;;5055421;28;20029;-52
2024/04/02 05:10:23;;;;;;;0.85;0.85;;;9.20;99.90;;;;;;5054989;28;20013;-52
2024/04/02 05:12:49;;;;;;;2.85;0.98;;;9.20;99.90;;;;;;5055361;28;20029;-53
2024/04/02 05:15:14;;;;;;;1.83;1.00;;;9.30;99.90;;;;;;5055394;28;20476;-54
2024/04/02 05:17:40;;;;;;;3.72;1.02;;;9.30;99.90;;;;;;5055161;28;20028;-54
2024/04/02 05:20:06;;;;;;;1.75;1.13;;;9.40;99.90;;;;;;5055653;28;20379;-51
2024/04/02 05:22:31;;;;;;;0.63;0.63;;;9.40;99.90;;;;;;5054936;28;20511;-51
2024/04/02 05:24:57;;;;;;;2.47;0.80;;;9.40;99.90;;;;;;5055030;28;20033;-51
2024/04/02 05:27:22;;;;;;;1.45;0.90;;;9.40;99.90;;;;;;5053600;28;20028;-56
2024/04/02 05:29:47;;;;;;;4.35;1.15;;;9.40;99.90;;;;;;5055290;28;20032;-51
2024/04/02 05:32:13;;;;;;;1.58;0.98;;;9.40;99.90;;;;;;5054628;28;20488;-52
2024/04/02 05:34:39;;;;;;;9.10;3.00;;;9.50;99.90;;;;;;5053309;28;20025;-56
2024/04/02 05:37:04;;;;;;;1.13;1.10;;;9.50;99.90;;;;;;5053582;28;20055;-53
2024/04/02 05:39:29;;;;;;;2.22;0.82;;;9.50;99.90;;;;;;5052805;28;20025;-54
2024/04/02 05:41:55;;;;;;;0.95;0.73;;;9.50;99.90;;;;;;5054733;28;20039;-51
2024/04/02 05:44:20;;;;;;;3.10;1.10;;;9.50;99.90;;;;;;5054757;28;20114;-52
2024/04/02 05:46:46;;;;;;;0.93;0.93;;;9.50;99.90;;;;;;5054238;28;20032;-48
2024/04/02 05:49:14;;;;;;;0.80;0.80;;;9.50;99.90;;;;;;5054513;28;20081;-56
2024/04/02 05:51:39;;;;;;;3.70;1.35;;;9.50;99.90;;;;;;5054120;28;20066;-54
2024/04/02 05:54:05;;;;;;;1.38;0.73;;;9.50;99.90;;;;;;5052837;28;20473;-52
2024/04/02 05:56:30;;;;;;;1.95;1.02;;;9.50;99.90;;;;;;5054520;28;20048;-50
2024/04/02 05:58:56;;;;;;;1.45;1.00;;;9.50;99.90;;;;;;5054419;28;20477;-56
2024/04/02 06:01:22;;;;;;;1.23;0.98;;;9.50;99.90;;;;;;5053876;28;20037;-53
2024/04/02 06:03:47;;;;;;;3.42;1.00;;;9.60;99.90;;;;;;5054630;28;20381;-49
2024/04/02 06:06:13;;;;;;;4.38;1.23;;;9.60;99.90;;;;;;5054490;28;20029;-50
2024/04/02 06:08:38;;;;;;;1.83;1.17;;;9.60;99.90;;;;;;5054573;28;20025;-56
2024/04/02 06:11:04;;;;;;;2.55;1.17;;;9.60;99.90;;;;;;5053946;28;20492;-53
2024/04/02 06:13:30;;;;;;;0.90;0.80;;;9.60;99.90;;;;;;5054582;28;20040;-54
2024/04/02 06:15:56;;;;;;;1.63;0.95;;;9.60;99.90;;;;;;5053801;28;20036;-54
2024/04/02 06:18:23;;;;;;;3.33;1.40;;;9.60;99.90;;;;;;5054267;28;20025;-50
2024/04/02 06:20:57;;;;;;;4.20;1.10;;;9.70;99.90;;;;;;5053111;28;20033;-51
2024/04/02 06:23:22;;;;;;;1.92;0.75;;;9.70;99.90;;;;;;5054156;28;20025;-54
2024/04/02 06:25:48;;;;;;;1.92;1.10;;;9.70;99.90;;;;;;5054233;28;20045;-53
2024/04/02 06:28:13;;;;;;;3.90;0.70;;;9.70;99.90;;;;;;5053710;28;20033;-50
2024/04/02 06:30:39;;;;;;;1.48;1.02;;;9.80;99.90;;;;;;5053795;28;20021;-51
2024/04/02 06:33:04;;;;;;;0.68;0.68;;;9.80;99.90;;;;;;5054275;28;20033;-54
2024/04/02 06:35:30;;;;;;;1.20;0.80;;;9.80;99.90;;;;;;5053950;28;20025;-56
2024/04/02 06:37:55;;;;;;;5.57;1.15;;;9.90;99.90;;;;;;5053593;28;20037;-54
2024/04/02 06:40:21;;;;;;;3.03;0.82;;;9.90;99.90;;;;;;5054213;28;20035;-51
2024/04/02 06:42:46;;;;;;;1.50;0.95;;;9.80;99.90;;;;;;5054081;28;20423;-50
2024/04/02 06:45:12;;;;;;;0.80;0.80;;;9.90;99.90;;;;;;5053965;28;20037;-51
2024/04/02 06:47:37;;;;;;;5.55;0.80;;;9.90;99.90;;;;;;5054274;28;20388;-51
2024/04/02 06:50:04;;;;;;;2.65;1.15;;;10.00;99.90;;;;;;5054114;28;20033;-54
2024/04/02 06:52:29;;;;;;;2.67;0.85;;;10.00;99.90;;;;;;5054355;28;20023;-53
2024/04/02 06:54:55;;;;;;;2.38;1.20;;;10.00;99.90;;;;;;5054062;28;20111;-53
2024/04/02 06:57:20;;;;;;;1.75;0.80;;;10.00;99.90;;;;;;5052848;28;20071;-51
2024/04/02 06:59:46;;;;;;;1.58;0.80;;;10.00;99.90;;;;;;5053738;28;20080;-53
2024/04/02 07:02:11;;;;;;;2.97;1.35;;;10.00;99.90;;;;;;5052509;28;20028;-53
2024/04/02 07:04:37;;;;;;;1.98;1.38;;;10.00;99.90;;;;;;5053539;28;20111;-53
2024/04/02 07:07:03;;;;;;;1.58;0.70;;;10.10;99.90;;;;;;5053642;28;20029;-53
2024/04/02 07:09:30;;;;;;;1.98;1.02;;;10.20;99.90;;;;;;5052936;28;20024;-51
2024/04/02 07:11:55;;;;;;;3.60;0.82;;;10.20;99.90;;;;;;5053187;28;20372;-52
2024/04/02 07:14:21;;;;;;;1.17;0.80;;;10.30;99.90;;;;;;5053197;28;20029;-55
2024/04/02 07:16:46;;;;;;;4.20;1.20;;;10.30;99.90;;;;;;5052894;28;20037;-56
2024/04/02 07:19:12;;;;;;;4.78;1.13;;;10.30;99.90;;;;;;5053352;28;20391;-53
2024/04/02 07:21:37;;;;;;;3.92;0.85;;;10.40;99.90;;;;;;5053201;28;20047;-51
2024/04/02 07:24:03;;;;;;;1.63;1.00;;;10.50;99.90;;;;;;5052097;28;20027;-56
2024/04/02 07:26:29;;;;;;;1.63;1.00;;;10.50;99.90;;;;;;5051289;28;20025;-56
2024/04/02 07:28:54;;;;;;;2.92;1.00;;;10.50;99.90;;;;;;5055122;28;20080;-50
2024/04/02 07:31:24;;;;;;;2.33;1.85;;;10.50;99.90;;;;;;5050719;28;20472;-52
2024/04/02 07:33:49;;;;;;;2.95;0.93;;;10.50;99.90;;;;;;5036284;28;20072;-51
2024/04/02 07:36:15;;;;;;;1.63;0.88;;;10.60;99.90;;;;;;5043783;28;20025;-52
2024/04/02 07:38:40;;;;;;;3.80;1.20;;;10.60;99.90;;;;;;5054424;28;20040;-51
2024/04/02 07:41:06;;;;;;;1.33;1.20;;;10.60;99.90;;;;;;5054539;28;20096;-53
2024/04/02 07:43:31;;;;;;;2.20;1.27;;;10.60;99.90;;;;;;5050011;28;20017;-53
2024/04/02 07:45:57;;;;;;;2.28;1.50;;;10.60;99.90;;;;;;5023373;28;20028;-50
2024/04/02 07:48:22;;;;;;;2.38;1.00;;;10.60;99.90;;;;;;5041426;28;20104;-53
2024/04/02 07:50:49;;;;;;;2.15;1.33;;;10.60;99.90;;;;;;5054248;28;20096;-53
2024/04/02 07:53:14;;;;;;;3.92;1.00;;;10.60;99.90;;;;;;5054271;28;20124;-52
2024/04/02 07:55:40;;;;;;;6.55;1.48;;;10.70;99.90;;;;;;5054401;28;20104;-53
2024/04/02 07:58:05;;;;;;;7.13;1.67;;;10.70;99.90;;;;;;5053637;28;20392;-52
2024/04/02 08:00:32;;;;;;;5.00;1.40;;;11.00;99.90;;;;;;5033134;28;20304;-53
2024/04/02 08:02:57;;;;;;;4.38;1.73;;;11.50;99.90;;;;;;5032916;28;20058;-54
2024/04/02 08:05:25;;;;;;;7.88;1.95;;;11.70;99.90;;;;;;5034169;28;20029;-51
2024/04/02 08:07:51;;;;;;;13.55;2.88;;;11.90;99.90;;;;;;5034022;28;20021;-52
2024/04/02 08:10:17;;;;;;;8.85;2.15;;;12.10;99.90;;;;;;5034191;28;20026;-50
2024/04/02 08:12:42;;;;;;;5.60;2.08;;;12.10;99.90;;;;;;5034225;28;20492;-53
2024/04/02 08:15:08;;;;;;;8.32;3.05;;;12.10;99.90;;;;;;5034247;28;20381;-53
2024/04/02 08:17:34;;;;;;;7.80;1.63;;;11.90;99.90;;;;;;5032523;28;20095;-54
2024/04/02 08:20:01;;;;;;;14.23;2.30;;;11.80;99.90;;;;;;5034131;28;20022;-50
2024/04/02 08:22:27;;;;;;;6.25;1.40;;;11.80;99.90;;;;;;5032723;28;20049;-53
2024/04/02 08:24:53;;;;;;;5.53;2.03;;;11.80;99.90;;;;;;5042749;28;20441;-54
2024/04/02 08:27:19;;;;;;;3.78;1.67;;;12.10;99.90;;;;;;5044615;28;20120;-52
2024/04/02 08:29:45;;;;;;;12.02;2.08;;;11.60;99.90;;;;;;5033765;28;20113;-46
2024/04/02 08:32:10;;;;;;;5.05;1.77;;;11.50;99.90;;;;;;5041211;28;20017;-49
2024/04/02 08:34:36;;;;;;;7.80;1.95;;;11.50;99.90;;;;;;5049180;28;20100;-50
2024/04/02 08:37:01;;;;;;;12.05;2.00;;;11.50;99.90;;;;;;5032440;28;20068;-49
2024/04/02 08:39:27;;;;;;;6.30;1.73;;;11.50;99.90;;;;;;5042123;28;20127;-53
2024/04/02 08:42:01;;;;;;;9.88;2.30;;;11.50;99.90;;;;;;5052831;28;20028;-50
2024/04/02 08:44:30;;;;;;;5.10;1.30;;;11.50;99.90;;;;;;5042506;28;20024;-54
2024/04/02 08:46:56;;;;;;;6.85;2.38;;;11.60;99.90;;;;;;5052249;28;20028;-50
2024/04/02 08:49:21;;;;;;;5.20;1.85;;;11.70;99.90;;;;;;5056892;28;20392;-52
2024/04/02 08:51:48;;;;;;;9.98;2.60;;;11.80;99.90;;;;;;5053718;28;20428;-52
2024/04/02 08:54:14;;;;;;;5.85;1.40;;;11.90;99.90;;;;;;5053327;28;20539;-55
2024/04/02 08:56:41;;;;;;;6.90;1.33;;;11.80;99.90;;;;;;5051889;28;20060;-54
2024/04/02 08:59:10;;;;;;;4.18;1.13;;;11.90;99.90;;;;;;5052841;28;20055;-52
2024/04/02 09:01:36;;;;;;;6.03;1.80;;;11.80;99.90;;;;;;5036676;28;20102;-55
2024/04/02 09:04:03;;;;;;;4.43;1.50;;;11.80;99.90;;;;;;5034306;28;20075;-48
2024/04/02 09:06:29;;;;;;;5.00;1.55;;;11.90;99.90;;;;;;5034216;28;20061;-48
2024/04/02 09:08:56;;;;;;;7.03;1.50;;;11.90;99.90;;;;;;5033457;28;20396;-49
2024/04/02 09:11:23;;;;;;;6.07;1.50;;;12.00;99.90;;;;;;5034031;28;20045;-48
2024/04/02 09:13:48;;;;;;;5.47;1.35;;;12.10;99.90;;;;;;5033617;28;20018;-46
2024/04/02 09:16:14;;;;;;;5.10;1.92;;;12.20;99.90;;;;;;5044527;28;20031;-47
2024/04/02 09:18:45;;;;;;;4.15;1.40;;;;;;;;;;5051382;28;20029;-47
2024/04/02 09:21:14;;;;;;;7.93;2.30;;;13.30;99.90;;;;;;5052748;28;20480;-47
2024/04/02 09:23:40;;;;;;;5.40;1.58;;;13.90;99.90;;;;;;5052973;28;20036;-47
2024/04/02 09:26:09;;;;;;;10.05;1.75;;;13.90;99.90;;;;;;5052592;28;20396;-48
2024/04/02 09:28:41;;;;;;;5.07;1.25;;;14.00;99.90;;;;;;5050830;28;20039;-49
2024/04/02 09:31:06;;;;;;;5.82;1.50;;;13.90;99.90;;;;;;5052347;28;20087;-50
2024/04/02 09:33:36;;;;;;;7.43;1.42;;;13.70;99.90;;;;;;5052229;28;20472;-55
2024/04/02 09:36:05;;;;;;;9.82;1.67;;;13.50;99.90;;;;;;5052448;28;20055;-47
2024/04/02 09:38:34;;;;;;;4.10;1.30;;;13.30;99.90;;;;;;5052173;28;20387;-47
2024/04/02 09:41:02;;;;;;;2.33;1.33;;;13.00;99.90;;;;;;5051812;28;20028;-47
2024/04/02 09:43:30;;;;;;;3.28;1.52;;;12.80;99.90;;;;;;5050394;28;20036;-47
2024/04/02 09:46:00;;;;;;;13.40;2.40;;;12.70;99.90;;;;;;5052079;28;20108;-49
2024/04/02 09:48:30;;;;;;;6.57;1.50;;;12.60;99.90;;;;;;5049520;28;20017;-50
2024/04/02 09:50:57;;;;;;;3.95;1.45;;;12.50;99.90;;;;;;5050724;28;20021;-46
2024/04/02 09:53:24;;;;;;;5.82;1.52;;;12.50;99.90;;;;;;5050919;28;20067;-50
2024/04/02 09:55:55;;;;;;;3.85;1.13;;;12.50;99.90;;;;;;5052282;28;20037;-48
2024/04/02 09:58:20;;;;;;;14.57;2.10;;;12.50;99.90;;;;;;5051152;28;20051;-48
2024/04/02 10:00:51;;;;;;;4.57;1.10;;;12.40;99.90;;;;;;5052436;28;20558;-49
2024/04/02 10:03:19;;;;;;;1.73;0.95;;;12.40;99.90;;;;;;5051368;28;20074;-46
2024/04/02 10:05:45;;;;;;;6.35;2.05;;;12.40;99.90;;;;;;5051363;28;20556;-46
2024/04/02 10:08:11;;;;;;;4.97;1.30;;;12.40;99.90;;;;;;5051558;28;20036;-45
2024/04/02 10:10:41;;;;;;;11.57;2.05;;;12.40;99.90;;;;;;5051493;28;20029;-47
2024/04/02 10:13:07;;;;;;;7.70;1.30;;;12.50;99.90;;;;;;5052060;28;20469;-46
2024/04/02 10:15:33;;;;;;;6.20;2.15;;;12.60;99.90;;;;;;5049983;28;20043;-47
2024/04/02 10:18:00;;;;;;;5.38;1.60;;;12.60;99.90;;;;;;5047805;28;20043;-47
2024/04/02 10:20:31;;;;;;;28.77;16.65;;;12.40;99.90;;;;;;5037131;28;20022;-48
2024/04/02 10:22:58;;;;;;;13.95;7.93;;;12.50;99.90;;;;;;5047033;28;20032;-48
2024/04/02 10:25:28;;;;;;;6.18;1.65;;;12.50;99.90;;;;;;5051702;28;20029;-49
2024/04/02 10:27:59;;;;;;;4.88;1.33;;;12.50;99.90;;;;;;5051346;28;20033;-47
2024/04/02 10:30:26;;;;;;;6.65;1.20;;;12.60;99.90;;;;;;5050521;28;20025;-46
2024/04/02 10:32:52;;;;;;;3.67;1.50;;;12.80;99.90;;;;;;5051822;28;20158;-47
2024/04/02 10:35:22;;;;;;;8.38;1.20;;;12.90;99.90;;;;;;5035186;28;20025;-49
2024/04/02 10:37:50;;;;;;;7.28;1.45;;;13.00;99.90;;;;;;5031458;28;20022;-50
2024/04/02 10:40:16;;;;;;;4.97;1.48;;;13.00;99.90;;;;;;5037356;28;20021;-48
2024/04/02 10:42:49;;;;;;;4.15;1.30;;;13.10;99.90;;;;;;5039362;28;20493;-49
2024/04/02 10:45:15;;;;;;;6.60;1.75;;;13.20;99.90;;;;;;5032603;28;20392;-47
2024/04/02 10:47:49;;;;;;;4.22;1.38;;;13.30;99.90;;;;;;5033899;28;20104;-51
2024/04/02 10:50:15;;;;;;;10.52;1.77;;;13.40;99.90;;;;;;5046449;28;20021;-49
2024/04/02 10:52:41;;;;;;;4.03;1.30;;;13.50;99.90;;;;;;5067706;28;20119;-48
2024/04/02 10:55:07;;;;;;;5.53;1.75;;;13.60;99.90;;;;;;5049252;28;20111;-51
2024/04/02 10:57:34;;;;;;;9.13;1.85;;;13.80;99.90;;;;;;5049045;28;20179;-52
2024/04/02 11:00:13;;;;;;;7.18;1.73;;;13.90;99.90;;;;;;5050984;28;20063;-51
2024/04/02 11:02:44;;;;;;;5.65;1.92;;;13.90;99.90;;;;;;5052317;28;20201;-51
2024/04/02 11:05:18;;;;;;;4.80;1.15;;;13.90;99.90;;;;;;5050715;28;20029;-49
2024/04/02 11:07:45;;;;;;;6.80;1.35;;;13.80;99.90;;;;;;5056370;28;20033;-50
2024/04/02 11:10:11;;;;;;;6.85;1.50;;;13.60;99.90;;;;;;5055677;28;20472;-49
2024/04/02 11:12:38;;;;;;;4.22;1.48;;;13.50;99.90;;;;;;5055429;28;20182;-53
2024/04/02 11:15:08;;;;;;;3.08;1.45;;;13.50;99.90;;;;;;5072923;23;20041;-46
2024/04/02 11:17:34;;;;;;;5.30;1.73;;;13.60;99.90;;;;;;5034109;28;20040;-48
2024/04/02 11:19:59;;;;;;;4.30;1.00;;;13.60;99.90;;;;;;5023601;28;20021;-49
2024/04/02 11:25:13;;;;;;;5.00;1.17;;;13.80;99.90;;;;;;5015117;28;20036;-50
2024/04/02 11:27:40;;;;;;;6.18;1.50;;;13.70;99.90;;;;;;5015098;28;20121;-46
2024/04/02 11:30:10;;;;;;;8.70;1.33;;;13.70;99.90;;;;;;5008527;28;20018;-48
2024/04/02 11:32:36;;;;;;;4.25;1.25;;;13.70;99.90;;;;;;5013883;28;20025;-51
2024/04/02 11:35:05;;;;;;;2.40;1.00;;;13.80;99.90;;;;;;5013563;28;20028;-53
2024/04/02 11:37:32;;;;;;;8.30;1.50;;;13.80;99.90;;;;;;5010276;28;20038;-51
2024/04/02 11:39:58;;;;;;;3.60;0.93;;;13.80;99.90;;;;;;5004553;28;20041;-47
2024/04/02 11:42:25;;;;;;;3.42;1.05;;;13.70;99.90;;;;;;5004539;28;20038;-48
2024/04/02 11:44:52;;;;;;;6.60;1.88;;;13.70;99.90;;;;;;4995343;28;20089;-47
2024/04/02 11:47:18;;;;;;;3.92;2.33;;;13.60;99.90;;;;;;5012097;28;20057;-51
2024/04/02 11:49:43;;;;;;;6.93;2.50;;;13.70;99.90;;;;;;5014843;28;20033;-54
2024/04/02 11:52:10;;;;;;;20.75;9.48;;;13.90;99.90;;;;;;5014691;28;20523;-49
2024/04/02 11:54:35;;;;;;;8.07;2.42;;;13.90;99.90;;;;;;5008134;28;20026;-48
2024/04/02 12:02:31;;;;;;;2.25;1.58;;;13.70;99.90;;;;;;5011709;28;20081;-46
2024/04/02 12:04:57;;;;;;;4.65;1.08;;;13.50;99.90;;;;;;4993719;28;20030;-54
2024/04/02 12:07:22;;;;;;;4.60;1.13;;;13.60;99.90;;;;;;4994658;28;20080;-48
2024/04/02 12:09:54;;;;;;;3.85;1.10;;;13.50;99.90;;;;;;4995630;28;20041;-51
2024/04/02 12:12:19;;;;;;;2.20;1.60;;;13.40;99.90;;;;;;5005118;28;20029;-55
2024/04/02 12:14:45;;;;;;;1.75;0.95;;;13.30;99.90;;;;;;4993957;28;20482;-54
2024/04/02 12:17:10;;;;;;;4.85;0.93;;;13.10;99.90;;;;;;5005268;28;20076;-49
2024/04/02 12:19:36;;;;;;;4.82;0.98;;;13.10;99.90;;;;;;5012828;28;20112;-49
2024/04/02 12:22:02;;;;;;;2.42;1.00;;;13.20;99.90;;;;;;5016824;28;20029;-49
2024/04/02 12:24:27;;;;;;;5.05;0.95;;;13.30;99.90;;;;;;5034328;28;20034;-49
2024/04/02 12:26:53;;;;;;;2.05;0.73;;;13.40;99.90;;;;;;5034133;28;20040;-48
2024/04/02 12:29:18;;;;;;;0.82;0.60;;;13.40;99.90;;;;;;5021953;28;20035;-49
2024/04/02 12:31:44;;;;;;;5.53;1.30;;;13.40;99.90;;;;;;5012916;28;20018;-53
2024/04/02 12:34:09;;;;;;;5.00;0.98;;;13.30;99.90;;;;;;5013587;28;20034;-46
2024/04/02 12:36:35;;;;;;;4.13;1.48;;;13.50;99.90;;;;;;5010635;28;20034;-49
2024/04/02 12:39:02;;;;;;;4.72;0.93;;;13.60;99.90;;;;;;5013316;28;20029;-49
2024/04/02 12:41:28;;;;;;;5.93;1.27;;;13.60;99.90;;;;;;5012400;28;20125;-53
2024/04/02 12:43:55;;;;;;;6.78;1.70;;;13.60;99.90;;;;;;5013587;28;20022;-47
2024/04/02 12:46:20;;;;;;;4.82;0.88;;;13.60;99.90;;;;;;5015031;28;20100;-49
2024/04/02 12:48:46;;;;;;;3.83;1.17;;;13.60;99.90;;;;;;5012995;28;20501;-49
2024/04/02 12:51:11;;;;;;;4.22;0.90;;;13.60;99.90;;;;;;5011869;28;20041;-44
2024/04/02 12:53:37;;;;;;;6.15;0.95;;;13.60;99.90;;;;;;5013438;28;20029;-48
2024/04/02 12:56:09;;;;;;;5.75;1.40;;;13.70;99.90;;;;;;5012998;28;20030;-50